Time;durP1;ratioP1;P1;durP2;ratioP2;P2;SDS_P1;SDS_P2;PMS_P1;PMS_P2;Temp;Humidity;BMP_temperature;BMP_pressure;BME280_temperature;BME280_humidity;BME280_pressure;Samples;Min_cycle;Max_cycle;Signal;HPM_P1;HPM_P2
2023/09/26 00:01:19;;;;;;;3.65;2.00;;;12.60;99.90;;;;;;5054052;28;20570;-79
2023/09/26 00:03:46;;;;;;;4.00;1.50;;;12.60;99.90;;;;;;5047551;28;20055;-79
2023/09/26 00:06:23;;;;;;;2.70;1.60;;;12.60;99.90;;;;;;5051147;28;20140;-79
2023/09/26 00:08:52;;;;;;;3.90;1.58;;;12.60;99.90;;;;;;5041375;28;20107;-78
2023/09/26 00:11:19;;;;;;;2.10;1.30;;;12.60;99.90;;;;;;5047398;28;20044;-79
2023/09/26 00:13:48;;;;;;;5.30;2.00;;;12.50;99.90;;;;;;5046892;28;20095;-79
2023/09/26 00:16:15;;;;;;;4.95;2.03;;;12.60;99.90;;;;;;5048525;28;20037;-79
2023/09/26 00:18:42;;;;;;;2.95;1.70;;;12.50;99.90;;;;;;5030728;28;20088;-78
2023/09/26 00:21:12;;;;;;;3.95;1.83;;;12.50;99.90;;;;;;5051242;28;20137;-79
2023/09/26 00:23:39;;;;;;;2.40;1.40;;;12.50;99.90;;;;;;5023089;28;20041;-79
2023/09/26 00:26:07;;;;;;;3.03;1.58;;;12.50;99.90;;;;;;5049382;28;20133;-79
2023/09/26 00:28:34;;;;;;;2.63;1.70;;;12.50;99.90;;;;;;5044410;28;20531;-79
2023/09/26 00:31:04;;;;;;;6.90;1.80;;;12.40;99.90;;;;;;5052523;28;20041;-79
2023/09/26 00:33:32;;;;;;;2.65;1.80;;;12.40;99.90;;;;;;5043437;28;20037;-79
2023/09/26 00:36:07;;;;;;;2.00;1.40;;;12.40;99.90;;;;;;5048899;28;20124;-79
2023/09/26 00:38:34;;;;;;;4.10;1.85;;;12.40;99.90;;;;;;5039293;28;20046;-79
2023/09/26 00:41:01;;;;;;;2.67;1.52;;;12.40;99.90;;;;;;5029507;28;20056;-79
2023/09/26 00:43:27;;;;;;;2.92;1.80;;;12.30;99.90;;;;;;5048712;28;20401;-79
2023/09/26 00:45:59;;;;;;;2.80;1.60;;;12.30;99.90;;;;;;5048591;28;20060;-78
2023/09/26 00:48:27;;;;;;;3.47;1.75;;;12.30;99.90;;;;;;5047248;28;20104;-80
2023/09/26 00:50:55;;;;;;;2.15;1.50;;;12.30;99.90;;;;;;5047189;28;20045;-79
2023/09/26 00:53:24;;;;;;;1.98;1.67;;;12.30;99.90;;;;;;5039061;28;20076;-79
2023/09/26 00:55:54;;;;;;;4.30;2.00;;;12.30;99.90;;;;;;5048069;28;20090;-79
2023/09/26 00:58:25;;;;;;;2.80;1.70;;;12.30;99.90;;;;;;5052595;28;20104;-79
2023/09/26 01:00:55;;;;;;;5.50;1.77;;;12.20;99.90;;;;;;5049869;28;20099;-78
2023/09/26 01:03:22;;;;;;;3.20;1.38;;;12.20;99.90;;;;;;5047006;28;20501;-79
2023/09/26 01:05:49;;;;;;;2.90;1.98;;;12.20;99.90;;;;;;5049735;28;20053;-79
2023/09/26 01:08:17;;;;;;;2.60;1.70;;;12.20;99.90;;;;;;5042200;28;20131;-79
2023/09/26 01:10:44;;;;;;;2.22;1.52;;;12.20;99.90;;;;;;5052743;28;20045;-79
2023/09/26 01:13:11;;;;;;;3.78;1.90;;;12.20;99.90;;;;;;5042532;28;20081;-79
2023/09/26 01:15:41;;;;;;;2.58;1.60;;;12.10;99.90;;;;;;5053503;28;20041;-79
2023/09/26 01:18:15;;;;;;;3.22;1.90;;;12.10;99.90;;;;;;5050714;28;20567;-79
2023/09/26 01:20:45;;;;;;;2.22;1.85;;;12.10;99.90;;;;;;5053985;28;20049;-79
2023/09/26 01:23:14;;;;;;;3.00;1.60;;;12.10;99.90;;;;;;5045549;28;20053;-79
2023/09/26 01:25:42;;;;;;;4.75;2.42;;;12.10;99.90;;;;;;5053570;28;20041;-79
2023/09/26 01:28:10;;;;;;;2.90;1.90;;;12.10;99.90;;;;;;5055627;28;20107;-79
2023/09/26 01:30:38;;;;;;;2.83;1.52;;;12.00;99.90;;;;;;5049419;28;20416;-78
2023/09/26 01:33:16;;;;;;;2.20;1.48;;;12.00;99.90;;;;;;5049517;28;20041;-79
2023/09/26 01:35:43;;;;;;;3.83;1.90;;;12.00;99.90;;;;;;5049041;28;20073;-79
2023/09/26 01:38:10;;;;;;;3.50;1.75;;;12.00;99.90;;;;;;5042084;28;20053;-79
2023/09/26 01:40:37;;;;;;;2.22;1.63;;;11.90;99.90;;;;;;5055054;28;20099;-78
2023/09/26 01:43:04;;;;;;;5.47;2.08;;;11.90;99.90;;;;;;5035671;28;20138;-79
2023/09/26 01:45:31;;;;;;;2.22;1.65;;;12.00;99.90;;;;;;5050233;28;20513;-78
2023/09/26 01:47:58;;;;;;;2.30;1.60;;;11.90;99.90;;;;;;5047903;28;20092;-79
2023/09/26 01:50:25;;;;;;;5.53;2.03;;;11.90;99.90;;;;;;5053751;28;20428;-78
2023/09/26 01:52:52;;;;;;;3.97;1.70;;;11.90;99.90;;;;;;5042750;28;20088;-78
2023/09/26 01:55:20;;;;;;;2.65;1.55;;;11.90;99.90;;;;;;5039189;28;20036;-78
2023/09/26 01:57:49;;;;;;;4.22;1.35;;;11.90;99.90;;;;;;5048700;28;20052;-79
2023/09/26 02:00:17;;;;;;;5.70;1.70;;;11.80;99.90;;;;;;5051537;28;20050;-77
2023/09/26 02:02:46;;;;;;;4.20;1.52;;;11.80;99.90;;;;;;5043254;28;20052;-78
2023/09/26 02:05:15;;;;;;;3.05;1.70;;;11.80;99.90;;;;;;5055287;28;20083;-78
2023/09/26 02:07:43;;;;;;;3.28;1.67;;;11.80;99.90;;;;;;5039586;28;20057;-79
2023/09/26 02:10:10;;;;;;;5.43;2.10;;;11.70;99.90;;;;;;5054661;28;20048;-79
2023/09/26 02:12:38;;;;;;;7.13;1.90;;;11.70;99.90;;;;;;5053199;28;20072;-79
2023/09/26 02:15:08;;;;;;;3.95;1.90;;;11.70;99.90;;;;;;5050504;28;20054;-78
2023/09/26 02:17:38;;;;;;;6.85;1.73;;;11.80;99.90;;;;;;5042447;28;20091;-79
2023/09/26 02:20:12;;;;;;;2.78;1.63;;;11.70;99.90;;;;;;5048203;28;20049;-79
2023/09/26 02:22:45;;;;;;;3.80;1.80;;;11.70;99.90;;;;;;5028883;28;20052;-79
2023/09/26 02:25:13;;;;;;;4.38;1.67;;;11.70;99.90;;;;;;5053742;28;20501;-79
2023/09/26 02:27:41;;;;;;;2.97;1.60;;;11.70;99.90;;;;;;5047745;28;20128;-79
2023/09/26 02:30:10;;;;;;;3.38;2.45;;;11.60;99.90;;;;;;5049275;28;20049;-78
2023/09/26 02:32:37;;;;;;;1.75;1.60;;;11.60;99.90;;;;;;5040001;28;20042;-79
2023/09/26 02:35:07;;;;;;;2.75;1.73;;;11.60;99.90;;;;;;5046859;28;20054;-78
2023/09/26 02:37:34;;;;;;;3.90;1.90;;;11.60;99.90;;;;;;5051623;28;20044;-79
2023/09/26 02:40:05;;;;;;;3.10;2.10;;;11.60;99.90;;;;;;5048970;28;20056;-80
2023/09/26 02:42:35;;;;;;;2.45;1.92;;;11.60;99.90;;;;;;5049861;28;20074;-79
2023/09/26 02:45:02;;;;;;;;;;;11.60;99.90;;;;;;5038125;28;20061;-78
2023/09/26 02:47:29;;;;;;;6.30;2.03;;;11.60;99.90;;;;;;5043196;28;19967;-78
2023/09/26 02:49:56;;;;;;;2.55;1.95;;;11.60;99.90;;;;;;5047813;28;20534;-79
2023/09/26 02:52:24;;;;;;;2.85;1.95;;;11.50;99.90;;;;;;5056123;28;20113;-79
2023/09/26 02:54:51;;;;;;;3.97;1.85;;;11.60;99.90;;;;;;5047926;28;20081;-79
2023/09/26 02:57:19;;;;;;;3.03;1.83;;;11.60;99.90;;;;;;5049320;28;20045;-79
2023/09/26 02:59:46;;;;;;;2.60;1.60;;;11.50;99.90;;;;;;5046950;28;20099;-79
2023/09/26 03:02:12;;;;;;;4.15;1.90;;;11.50;99.90;;;;;;5042800;28;20566;-81
2023/09/26 03:04:39;;;;;;;2.75;1.55;;;11.50;99.90;;;;;;5047090;28;20056;-79
2023/09/26 03:07:06;;;;;;;3.65;1.90;;;11.50;99.90;;;;;;5050122;28;20045;-78
2023/09/26 03:09:33;;;;;;;2.47;1.80;;;11.50;99.90;;;;;;5049202;28;20109;-78
2023/09/26 03:12:00;;;;;;;3.55;2.20;;;11.40;99.90;;;;;;5043021;28;20552;-78
2023/09/26 03:14:27;;;;;;;2.95;1.80;;;11.40;99.90;;;;;;5048061;28;20052;-78
2023/09/26 03:16:54;;;;;;;2.40;1.95;;;11.40;99.90;;;;;;5037324;28;20049;-78
2023/09/26 03:19:23;;;;;;;2.47;1.70;;;11.40;99.90;;;;;;5049205;28;20068;-78
2023/09/26 03:21:50;;;;;;;5.68;1.90;;;11.40;99.90;;;;;;5049827;28;20049;-78
2023/09/26 03:24:18;;;;;;;2.13;1.63;;;11.40;99.90;;;;;;5050246;28;20054;-78
2023/09/26 03:26:45;;;;;;;2.28;1.88;;;11.40;99.90;;;;;;5034987;28;20072;-78
2023/09/26 03:29:12;;;;;;;3.50;2.10;;;11.40;99.90;;;;;;5046308;28;20073;-78
2023/09/26 03:31:42;;;;;;;3.33;2.10;;;11.40;99.90;;;;;;5019422;28;20389;-78
2023/09/26 03:34:09;;;;;;;4.60;2.20;;;11.40;99.90;;;;;;5048195;28;20050;-77
2023/09/26 03:36:36;;;;;;;4.63;1.80;;;11.30;99.90;;;;;;5047962;28;20123;-78
2023/09/26 03:39:03;;;;;;;3.15;2.20;;;11.30;99.90;;;;;;5046966;28;20046;-78
2023/09/26 03:41:32;;;;;;;7.70;2.67;;;11.30;99.90;;;;;;5042596;28;20049;-78
2023/09/26 03:43:59;;;;;;;3.75;2.03;;;11.30;99.90;;;;;;5045470;28;20049;-78
2023/09/26 03:46:25;;;;;;;6.05;1.90;;;11.30;99.90;;;;;;5039180;28;20052;-78
2023/09/26 03:48:52;;;;;;;2.75;1.73;;;11.30;99.90;;;;;;5030272;28;20045;-78
2023/09/26 03:51:19;;;;;;;2.45;2.10;;;11.30;99.90;;;;;;5031167;28;20069;-80
2023/09/26 03:53:46;;;;;;;5.97;2.03;;;11.30;99.90;;;;;;5029531;28;20503;-80
2023/09/26 03:56:12;;;;;;;2.75;2.13;;;11.20;99.90;;;;;;5043444;28;20080;-80
2023/09/26 03:58:39;;;;;;;4.30;2.17;;;11.20;99.90;;;;;;5049108;28;20049;-80
2023/09/26 04:01:16;;;;;;;3.70;2.20;;;11.20;99.90;;;;;;5040631;28;20103;-80
2023/09/26 04:03:46;;;;;;;2.85;2.08;;;11.20;99.90;;;;;;5050143;28;20048;-80
2023/09/26 04:06:13;;;;;;;2.58;1.73;;;11.20;99.90;;;;;;5050772;28;20424;-78
2023/09/26 04:08:40;;;;;;;6.03;2.22;;;11.20;99.90;;;;;;5045934;28;20479;-78
2023/09/26 04:11:16;;;;;;;2.67;1.88;;;11.20;99.90;;;;;;5040536;28;20424;-78
2023/09/26 04:13:43;;;;;;;2.60;1.83;;;11.20;99.90;;;;;;5040957;28;20515;-78
2023/09/26 04:16:10;;;;;;;3.33;2.00;;;11.20;99.90;;;;;;5036754;28;20041;-78
2023/09/26 04:18:37;;;;;;;3.10;1.83;;;11.10;99.90;;;;;;5052573;28;20041;-81
2023/09/26 04:21:06;;;;;;;4.30;1.98;;;11.10;99.90;;;;;;5046905;28;20049;-78
2023/09/26 04:23:38;;;;;;;6.03;2.15;;;11.10;99.90;;;;;;5043698;28;20041;-78
2023/09/26 04:26:15;;;;;;;5.10;2.60;;;11.10;99.90;;;;;;5038884;28;20053;-78
2023/09/26 04:28:44;;;;;;;4.55;2.38;;;11.10;99.90;;;;;;5040142;28;20587;-78
2023/09/26 04:31:16;;;;;;;3.95;2.05;;;11.10;99.90;;;;;;5046710;28;20048;-79
2023/09/26 04:33:44;;;;;;;4.20;2.47;;;11.00;99.90;;;;;;5054901;28;20415;-79
2023/09/26 04:36:11;;;;;;;4.15;2.70;;;11.00;99.90;;;;;;5051019;28;20045;-79
2023/09/26 04:38:38;;;;;;;4.38;2.17;;;11.00;99.90;;;;;;5051621;28;20049;-79
2023/09/26 04:41:05;;;;;;;3.45;2.50;;;11.00;99.90;;;;;;5043461;28;20076;-79
2023/09/26 04:43:33;;;;;;;4.53;2.53;;;11.00;99.90;;;;;;5051236;28;20577;-79
2023/09/26 04:46:00;;;;;;;7.55;2.72;;;11.00;99.90;;;;;;5053436;28;20056;-79
2023/09/26 04:48:27;;;;;;;5.95;3.55;;;10.90;99.90;;;;;;5056207;28;20045;-79
2023/09/26 04:50:54;;;;;;;6.53;2.85;;;10.90;99.90;;;;;;5049314;28;20049;-79
2023/09/26 04:53:22;;;;;;;3.33;2.17;;;10.90;99.90;;;;;;5053085;28;20049;-79
2023/09/26 04:55:49;;;;;;;6.13;2.45;;;10.90;99.90;;;;;;5043230;28;20050;-79
2023/09/26 04:58:16;;;;;;;5.45;2.20;;;10.90;99.90;;;;;;5049474;28;20132;-79
2023/09/26 05:00:43;;;;;;;3.75;3.05;;;10.90;99.90;;;;;;5052157;28;20045;-79
2023/09/26 05:03:10;;;;;;;3.88;3.05;;;10.90;99.90;;;;;;5055422;28;20091;-80
2023/09/26 05:05:37;;;;;;;4.88;2.83;;;10.80;99.90;;;;;;5048481;28;20570;-79
2023/09/26 05:08:04;;;;;;;4.40;2.65;;;10.80;99.90;;;;;;5050094;28;20049;-79
2023/09/26 05:10:35;;;;;;;5.75;3.00;;;10.80;99.90;;;;;;5043199;28;20052;-80
2023/09/26 05:13:02;;;;;;;4.60;2.88;;;10.80;99.90;;;;;;5048958;28;20132;-79
2023/09/26 05:15:32;;;;;;;2.58;2.20;;;10.80;99.90;;;;;;5057081;28;20046;-79
2023/09/26 05:17:58;;;;;;;3.55;2.50;;;10.80;99.90;;;;;;5050086;28;20109;-79
2023/09/26 05:20:25;;;;;;;4.70;2.40;;;10.80;99.90;;;;;;5050335;28;20394;-79
2023/09/26 05:22:52;;;;;;;5.35;2.40;;;10.70;99.90;;;;;;5047094;28;20056;-79
2023/09/26 05:25:19;;;;;;;5.57;2.17;;;10.70;99.90;;;;;;5024873;28;20046;-79
2023/09/26 05:27:46;;;;;;;5.22;2.63;;;10.70;99.90;;;;;;5053959;28;20040;-79
2023/09/26 05:30:14;;;;;;;4.50;2.53;;;10.70;99.90;;;;;;5035585;28;20091;-79
2023/09/26 05:32:41;;;;;;;3.42;2.22;;;10.70;99.90;;;;;;5050630;28;20064;-79
2023/09/26 05:35:09;;;;;;;8.70;2.55;;;10.70;99.90;;;;;;5046058;28;20053;-79
2023/09/26 05:37:37;;;;;;;9.00;3.00;;;10.70;99.90;;;;;;5051555;28;20040;-79
2023/09/26 05:40:09;;;;;;;5.15;2.67;;;10.70;99.90;;;;;;5040831;28;20464;-79
2023/09/26 05:42:38;;;;;;;6.45;3.40;;;10.70;99.90;;;;;;5053496;28;20488;-79
2023/09/26 05:45:07;;;;;;;7.45;3.42;;;10.70;99.90;;;;;;5039562;28;20077;-79
2023/09/26 05:47:34;;;;;;;4.03;2.22;;;10.70;99.90;;;;;;5044027;28;20128;-79
2023/09/26 05:50:03;;;;;;;6.47;2.40;;;10.70;99.90;;;;;;5045953;28;20045;-79
2023/09/26 05:52:30;;;;;;;2.85;2.10;;;10.70;99.90;;;;;;5034246;28;20049;-79
2023/09/26 05:54:57;;;;;;;2.38;1.83;;;10.60;99.90;;;;;;5041492;28;20045;-79
2023/09/26 05:57:26;;;;;;;4.55;2.28;;;10.60;99.90;;;;;;5054592;28;20131;-79
2023/09/26 05:59:53;;;;;;;3.90;2.00;;;10.60;99.90;;;;;;5052664;28;20053;-79
2023/09/26 06:02:20;;;;;;;3.42;2.05;;;10.60;99.90;;;;;;5051735;28;20288;-79
2023/09/26 06:04:47;;;;;;;5.72;2.10;;;10.70;99.90;;;;;;5047637;28;20123;-79
2023/09/26 06:07:14;;;;;;;4.07;2.00;;;10.70;99.90;;;;;;5048479;28;20055;-78
2023/09/26 06:09:41;;;;;;;4.95;2.63;;;10.70;99.90;;;;;;5039976;28;20083;-79
2023/09/26 06:12:28;;;;;;;3.78;1.83;;;10.70;99.90;;;;;;5054689;28;20124;-80
2023/09/26 06:14:55;;;;;;;2.83;1.83;;;10.70;99.90;;;;;;5044463;28;20048;-79
2023/09/26 06:17:21;;;;;;;2.78;2.10;;;10.70;99.90;;;;;;5040130;28;20103;-79
2023/09/26 06:19:48;;;;;;;5.43;2.42;;;10.80;99.90;;;;;;5044127;28;20049;-79
2023/09/26 06:22:16;;;;;;;6.55;4.82;;;10.80;99.90;;;;;;5030108;28;20095;-79
2023/09/26 06:24:43;;;;;;;6.63;4.60;;;10.80;99.90;;;;;;5024534;28;20049;-79
2023/09/26 06:27:10;;;;;;;7.28;4.72;;;10.80;99.90;;;;;;5050509;28;20087;-80
2023/09/26 06:29:40;;;;;;;8.70;4.97;;;10.90;99.90;;;;;;5040135;28;20057;-79
2023/09/26 06:32:07;;;;;;;;;;;10.90;99.90;;;;;;5047043;28;20049;-79
2023/09/26 06:34:35;;;;;;;9.95;6.32;;;10.90;99.90;;;;;;5044762;28;20381;-79
2023/09/26 06:37:02;;;;;;;5.57;4.70;;;10.90;99.90;;;;;;5047832;28;20053;-79
2023/09/26 06:39:30;;;;;;;7.40;4.30;;;10.90;99.90;;;;;;5042087;28;20049;-80
2023/09/26 06:41:57;;;;;;;6.55;3.90;;;11.00;99.90;;;;;;5051146;28;20045;-80
2023/09/26 06:44:23;;;;;;;7.30;3.75;;;11.00;99.90;;;;;;5049287;28;20098;-80
2023/09/26 06:46:51;;;;;;;6.13;3.42;;;11.00;99.90;;;;;;5051064;28;20045;-80
2023/09/26 06:49:19;;;;;;;6.35;3.28;;;11.00;99.90;;;;;;5045117;28;20042;-80
2023/09/26 06:51:46;;;;;;;6.45;3.33;;;11.10;99.90;;;;;;5043714;28;20037;-80
2023/09/26 06:54:13;;;;;;;7.18;3.45;;;11.10;99.90;;;;;;5046965;28;20075;-80
2023/09/26 06:56:40;;;;;;;6.93;3.35;;;11.20;99.90;;;;;;5054892;28;20045;-80
2023/09/26 06:59:08;;;;;;;4.18;3.15;;;11.20;99.90;;;;;;5047888;28;20045;-81
2023/09/26 07:01:35;;;;;;;6.25;3.80;;;11.20;99.90;;;;;;5051387;28;20077;-78
2023/09/26 07:04:03;;;;;;;7.40;3.78;;;11.30;99.90;;;;;;5040293;28;20135;-80
2023/09/26 07:06:30;;;;;;;7.60;3.88;;;11.30;99.90;;;;;;5047948;28;20065;-80
2023/09/26 07:08:58;;;;;;;4.88;3.67;;;11.40;99.90;;;;;;5049714;28;20132;-80
2023/09/26 07:11:26;;;;;;;5.47;3.72;;;11.40;99.90;;;;;;5052086;28;20049;-80
2023/09/26 07:13:54;;;;;;;6.65;3.88;;;11.50;99.90;;;;;;5047236;28;20451;-80
2023/09/26 07:16:21;;;;;;;7.65;4.15;;;11.50;99.90;;;;;;5048817;28;20049;-80
2023/09/26 07:18:47;;;;;;;8.75;3.70;;;11.60;99.90;;;;;;5039337;28;20058;-78
2023/09/26 07:21:14;;;;;;;4.50;4.00;;;11.60;99.90;;;;;;5047900;28;20057;-80
2023/09/26 07:23:41;;;;;;;4.35;3.47;;;11.70;99.90;;;;;;5053853;28;20045;-80
2023/09/26 07:26:13;;;;;;;7.50;3.50;;;11.80;99.90;;;;;;5051798;28;20099;-80
2023/09/26 07:28:43;;;;;;;6.50;3.30;;;11.80;99.90;;;;;;5030887;28;20045;-80
2023/09/26 07:31:15;;;;;;;4.35;2.97;;;11.90;99.90;;;;;;5048858;28;20152;-80
2023/09/26 07:33:43;;;;;;;5.03;3.45;;;12.00;99.90;;;;;;5041729;28;20076;-80
2023/09/26 07:36:10;;;;;;;5.38;3.30;;;12.00;99.90;;;;;;5047215;28;20075;-78
2023/09/26 07:38:38;;;;;;;6.95;3.28;;;12.10;99.90;;;;;;5053346;28;20505;-80
2023/09/26 07:41:04;;;;;;;4.78;3.10;;;12.20;99.90;;;;;;5052538;28;20084;-80
2023/09/26 07:43:33;;;;;;;5.32;3.42;;;12.20;99.90;;;;;;5046534;28;20493;-80
2023/09/26 07:46:11;;;;;;;5.60;2.72;;;12.30;99.90;;;;;;5037007;28;20119;-80
2023/09/26 07:48:38;;;;;;;5.22;2.60;;;12.40;99.90;;;;;;5043070;28;20099;-80
2023/09/26 07:51:07;;;;;;;6.55;2.97;;;12.50;99.90;;;;;;5052018;28;20048;-80
2023/09/26 07:53:34;;;;;;;4.05;2.90;;;12.60;99.90;;;;;;5052477;28;20048;-80
2023/09/26 07:56:02;;;;;;;5.28;2.35;;;12.60;99.90;;;;;;5051485;28;20052;-80
2023/09/26 07:58:28;;;;;;;5.70;2.63;;;12.70;99.90;;;;;;5049947;28;20386;-80
2023/09/26 08:00:58;;;;;;;3.78;2.63;;;12.80;99.90;;;;;;5051300;28;20115;-81
2023/09/26 08:03:26;;;;;;;5.32;2.97;;;12.90;99.90;;;;;;5021669;28;20117;-80
2023/09/26 08:06:00;;;;;;;9.18;2.95;;;13.00;99.90;;;;;;5050372;28;20131;-80
2023/09/26 08:08:31;;;;;;;4.57;2.38;;;13.00;99.90;;;;;;5053738;28;20118;-80
2023/09/26 08:11:09;;;;;;;4.97;2.80;;;13.10;99.90;;;;;;5051911;28;20127;-80
2023/09/26 08:13:39;;;;;;;5.13;3.25;;;13.20;99.90;;;;;;5049253;28;20046;-80
2023/09/26 08:16:06;;;;;;;6.38;2.72;;;13.20;99.90;;;;;;5032959;28;20052;-79
2023/09/26 08:18:33;;;;;;;3.22;2.80;;;13.30;99.90;;;;;;5043561;28;20197;-80
2023/09/26 08:21:00;;;;;;;3.75;2.83;;;13.40;99.90;;;;;;5057087;28;20136;-80
2023/09/26 08:23:30;;;;;;;4.28;2.40;;;13.40;99.90;;;;;;5053095;28;20103;-81
2023/09/26 08:26:07;;;;;;;3.55;2.35;;;13.50;99.90;;;;;;5051943;28;20098;-80
2023/09/26 08:28:34;;;;;;;5.38;3.03;;;13.50;99.90;;;;;;5049243;28;20053;-80
2023/09/26 08:31:07;;;;;;;6.03;3.50;;;13.60;99.90;;;;;;5046293;28;20084;-80
2023/09/26 08:33:35;;;;;;;4.57;2.80;;;13.70;99.90;;;;;;5043272;28;20048;-80
2023/09/26 08:36:02;;;;;;;4.57;2.60;;;13.70;99.90;;;;;;5056142;28;20479;-80
2023/09/26 08:38:29;;;;;;;6.50;2.88;;;13.80;99.90;;;;;;5034995;28;20089;-80
2023/09/26 08:40:57;;;;;;;6.85;3.17;;;13.90;99.90;;;;;;5052733;28;20131;-80
2023/09/26 08:43:26;;;;;;;7.43;4.15;;;13.90;99.90;;;;;;5044360;28;20505;-80
2023/09/26 08:45:53;;;;;;;3.45;3.00;;;13.90;99.90;;;;;;5051573;28;20049;-80
2023/09/26 08:48:21;;;;;;;4.20;3.40;;;14.00;99.90;;;;;;5048612;28;20055;-80
2023/09/26 08:50:50;;;;;;;3.33;2.90;;;14.00;99.90;;;;;;5040135;28;20067;-80
2023/09/26 08:53:17;;;;;;;7.40;3.63;;;14.10;99.90;;;;;;5050935;28;20077;-80
2023/09/26 08:55:45;;;;;;;4.88;2.80;;;14.10;99.90;;;;;;5052435;28;20041;-80
2023/09/26 08:58:15;;;;;;;6.25;3.10;;;14.10;99.90;;;;;;5042750;28;20037;-80
2023/09/26 09:00:45;;;;;;;3.53;3.15;;;14.20;99.90;;;;;;5050320;28;20049;-80
2023/09/26 09:03:13;;;;;;;4.63;2.72;;;14.20;99.90;;;;;;5053247;28;20120;-80
2023/09/26 09:05:40;;;;;;;5.20;3.15;;;14.20;99.90;;;;;;5054760;28;20045;-79
2023/09/26 09:08:08;;;;;;;6.80;3.15;;;14.30;99.90;;;;;;5052780;28;20068;-80
2023/09/26 09:11:11;;;;;;;7.90;3.40;;;14.30;99.90;;;;;;5050033;28;20042;-80
2023/09/26 09:13:39;;;;;;;5.80;3.30;;;14.30;99.90;;;;;;5009087;28;20600;-81
2023/09/26 09:16:17;;;;;;;7.65;3.35;;;14.50;99.90;;;;;;5043102;28;20500;-80
2023/09/26 09:18:47;;;;;;;7.82;3.25;;;14.50;99.90;;;;;;5056255;28;20115;-81
2023/09/26 09:21:25;;;;;;;8.55;3.35;;;14.50;99.90;;;;;;5050501;28;20056;-81
2023/09/26 09:23:52;;;;;;;5.72;3.00;;;14.60;99.90;;;;;;5054485;28;20052;-80
2023/09/26 09:26:21;;;;;;;4.85;3.15;;;14.60;99.90;;;;;;5044882;28;20133;-80
2023/09/26 09:28:48;;;;;;;5.53;3.28;;;14.60;99.90;;;;;;5049411;28;20515;-81
2023/09/26 09:31:16;;;;;;;5.65;3.17;;;14.70;99.90;;;;;;5049634;28;20040;-79
2023/09/26 09:33:44;;;;;;;7.60;3.50;;;14.70;99.90;;;;;;5055813;28;20048;-80
2023/09/26 09:36:12;;;;;;;7.95;3.50;;;14.80;99.90;;;;;;5049339;28;20048;-80
2023/09/26 09:38:39;;;;;;;5.63;3.08;;;14.80;99.90;;;;;;5050617;28;20071;-80
2023/09/26 09:41:07;;;;;;;4.60;2.80;;;14.90;99.90;;;;;;5045983;28;20071;-80
2023/09/26 09:43:35;;;;;;;7.70;3.05;;;15.00;99.90;;;;;;5045908;28;20040;-80
2023/09/26 09:46:08;;;;;;;8.45;2.78;;;15.10;99.90;;;;;;5054468;28;20473;-80
2023/09/26 09:48:43;;;;;;;4.07;2.85;;;15.10;99.90;;;;;;5052296;28;20045;-80
2023/09/26 09:51:15;;;;;;;5.25;3.03;;;15.20;99.90;;;;;;5046969;28;20057;-80
2023/09/26 09:53:45;;;;;;;6.18;2.90;;;15.20;99.90;;;;;;5050115;28;20048;-81
2023/09/26 09:56:18;;;;;;;6.20;2.72;;;15.30;99.90;;;;;;5046777;28;20046;-80
2023/09/26 09:58:49;;;;;;;4.05;2.30;;;15.40;99.90;;;;;;5048074;28;20049;-80
2023/09/26 10:01:20;;;;;;;4.47;2.50;;;15.50;99.90;;;;;;5052654;28;20128;-80
2023/09/26 10:03:50;;;;;;;7.13;2.60;;;15.50;99.90;;;;;;5055703;28;20133;-81
2023/09/26 10:06:20;;;;;;;5.13;2.85;;;15.60;99.90;;;;;;5046801;28;20119;-80
2023/09/26 10:08:49;;;;;;;5.63;2.75;;;15.70;99.90;;;;;;5032350;28;20064;-80
2023/09/26 10:11:18;;;;;;;6.85;2.70;;;15.80;99.90;;;;;;5043605;28;20042;-80
2023/09/26 10:13:47;;;;;;;6.10;2.78;;;15.80;99.90;;;;;;5048080;28;20501;-81
2023/09/26 10:16:16;;;;;;;4.22;2.50;;;15.80;99.90;;;;;;5061475;28;20123;-80
2023/09/26 10:18:44;;;;;;;5.53;2.53;;;15.90;99.90;;;;;;5057955;28;20077;-81
2023/09/26 10:21:24;;;;;;;7.28;2.20;;;16.00;99.90;;;;;;5046267;28;20068;-80
2023/09/26 10:24:08;;;;;;;3.60;2.28;;;16.00;99.90;;;;;;5049655;28;20129;-80
2023/09/26 10:26:43;;;;;;;4.07;1.90;;;16.10;99.90;;;;;;5041444;28;20394;-80
2023/09/26 10:29:17;;;;;;;3.47;2.20;;;16.10;99.90;;;;;;5049918;28;20040;-80
2023/09/26 10:31:53;;;;;;;5.28;2.60;;;16.10;99.90;;;;;;5054317;28;20045;-81
2023/09/26 10:34:27;;;;;;;5.47;1.83;;;16.20;99.90;;;;;;5051330;28;20124;-80
2023/09/26 10:37:19;;;;;;;8.70;2.95;;;16.20;99.90;;;;;;5045948;28;20048;-80
2023/09/26 10:39:47;;;;;;;5.43;2.20;;;16.30;99.90;;;;;;5048470;28;20053;-80
2023/09/26 10:42:16;;;;;;;5.60;2.10;;;16.40;99.90;;;;;;5041506;28;20419;-80
2023/09/26 10:45:04;;;;;;;7.13;2.70;;;16.40;99.90;;;;;;5049733;28;20060;-80
2023/09/26 10:47:36;;;;;;;7.53;2.63;;;16.50;99.90;;;;;;5051342;28;20045;-80
2023/09/26 10:50:05;;;;;;;9.00;2.55;;;16.50;99.90;;;;;;5029008;28;20448;-80
2023/09/26 10:52:33;;;;;;;6.97;2.90;;;16.50;99.90;;;;;;5047072;28;20124;-80
2023/09/26 10:55:01;;;;;;;7.65;2.85;;;16.70;99.90;;;;;;5046455;28;20574;-80
2023/09/26 10:57:28;;;;;;;7.07;2.50;;;16.80;99.90;;;;;;5051957;28;20133;-81
2023/09/26 10:59:54;;;;;;;9.20;2.65;;;16.80;99.90;;;;;;5053274;28;20136;-81
2023/09/26 11:02:22;;;;;;;6.85;2.55;;;16.90;99.90;;;;;;5049714;28;20051;-81
2023/09/26 11:05:11;;;;;;;6.78;2.42;;;16.90;99.90;;;;;;5040615;28;20055;-81
2023/09/26 11:07:39;;;;;;;6.00;2.30;;;17.00;99.90;;;;;;5048138;28;20045;-80
2023/09/26 11:10:14;;;;;;;5.65;2.40;;;17.00;99.90;;;;;;5049416;28;20080;-80
2023/09/26 11:12:41;;;;;;;3.90;2.78;;;17.10;99.90;;;;;;5051746;28;20500;-81
2023/09/26 11:15:09;;;;;;;6.07;2.42;;;17.20;99.90;;;;;;5051146;28;20049;-80
2023/09/26 11:17:39;;;;;;;5.60;2.00;;;17.20;99.90;;;;;;5049073;28;20095;-80
2023/09/26 11:20:09;;;;;;;5.88;2.63;;;17.20;99.90;;;;;;5041132;28;20075;-81
2023/09/26 11:22:45;;;;;;;4.35;2.22;;;17.20;99.90;;;;;;5045201;28;20079;-81
2023/09/26 11:25:13;;;;;;;5.68;2.28;;;17.20;99.90;;;;;;5047501;28;20100;-80
2023/09/26 11:27:42;;;;;;;4.40;2.30;;;17.30;99.90;;;;;;5050133;28;20069;-80
2023/09/26 11:30:14;;;;;;;7.25;2.58;;;17.40;99.90;;;;;;5045727;28;20106;-80
2023/09/26 11:32:46;;;;;;;6.22;1.90;;;17.50;99.90;;;;;;5031127;28;20045;-81
2023/09/26 11:35:14;;;;;;;3.47;1.75;;;17.50;99.90;;;;;;5033799;28;20041;-80
2023/09/26 11:37:41;;;;;;;10.85;2.50;;;17.60;99.90;;;;;;5046856;28;20040;-80
2023/09/26 11:40:11;;;;;;;5.57;1.98;;;17.60;99.90;;;;;;5047395;28;20118;-80
2023/09/26 11:42:47;;;;;;;3.75;2.20;;;17.70;99.90;;;;;;5051933;28;20045;-81
2023/09/26 11:45:32;;;;;;;6.05;2.08;;;17.80;99.90;;;;;;5036666;28;20049;-81
2023/09/26 11:48:03;;;;;;;3.65;1.92;;;17.90;99.90;;;;;;5051646;28;20133;-80
2023/09/26 11:50:30;;;;;;;6.20;1.98;;;17.90;99.90;;;;;;5041077;28;20041;-81
2023/09/26 11:53:00;;;;;;;7.85;2.00;;;18.10;99.90;;;;;;5051437;28;20049;-81
2023/09/26 11:55:29;;;;;;;5.43;1.77;;;18.20;99.90;;;;;;5032726;28;20045;-80
2023/09/26 11:57:58;;;;;;;3.70;1.75;;;18.20;99.90;;;;;;5052385;28;20046;-80
2023/09/26 12:00:26;;;;;;;5.22;2.78;;;18.30;99.90;;;;;;5045228;28;20061;-80
2023/09/26 12:02:53;;;;;;;4.13;1.77;;;18.30;99.90;;;;;;5032439;28;20049;-80
2023/09/26 12:05:21;;;;;;;3.55;1.60;;;18.40;99.90;;;;;;5039850;28;20041;-81
2023/09/26 12:07:49;;;;;;;2.60;1.40;;;18.40;99.90;;;;;;5051565;28;20497;-80
2023/09/26 12:10:18;;;;;;;2.40;1.33;;;18.50;99.90;;;;;;5051804;28;20132;-81
2023/09/26 12:12:46;;;;;;;3.38;1.73;;;18.60;99.90;;;;;;5050214;28;20095;-81
2023/09/26 12:15:16;;;;;;;3.92;1.40;;;18.60;99.90;;;;;;5045868;28;20045;-80
2023/09/26 12:17:42;;;;;;;2.63;1.50;;;18.70;99.90;;;;;;5049053;28;20045;-81
2023/09/26 12:20:10;;;;;;;2.40;1.10;;;18.70;99.90;;;;;;5024186;28;20048;-80
2023/09/26 12:22:37;;;;;;;1.88;1.30;;;18.70;99.90;;;;;;5049977;28;20060;-80
2023/09/26 12:25:05;;;;;;;3.60;1.65;;;18.70;99.90;;;;;;5051885;28;20531;-81
2023/09/26 12:27:31;;;;;;;1.77;1.40;;;18.80;99.90;;;;;;5046460;28;20122;-80
2023/09/26 12:29:58;;;;;;;2.45;1.30;;;18.80;99.90;;;;;;5044733;28;20057;-80
2023/09/26 12:32:25;;;;;;;3.03;1.48;;;18.80;99.90;;;;;;5048118;28;20041;-81
2023/09/26 12:34:52;;;;;;;1.52;1.40;;;18.80;99.90;;;;;;5040829;28;20060;-81
2023/09/26 12:37:19;;;;;;;1.85;1.30;;;18.80;99.90;;;;;;5048878;28;20100;-80
2023/09/26 12:39:46;;;;;;;2.97;1.52;;;18.80;99.90;;;;;;5049328;28;20037;-81
2023/09/26 12:42:13;;;;;;;2.53;1.38;;;18.90;99.90;;;;;;5050033;28;20620;-80
2023/09/26 12:44:40;;;;;;;5.00;1.52;;;18.90;99.90;;;;;;5043320;28;20046;-80
2023/09/26 12:47:07;;;;;;;1.70;1.30;;;18.90;99.90;;;;;;5048451;28;20116;-81
2023/09/26 12:49:34;;;;;;;2.15;1.40;;;18.90;99.90;;;;;;5040520;28;20460;-80
2023/09/26 12:52:01;;;;;;;2.97;1.40;;;18.90;99.90;;;;;;5051264;28;20044;-81
2023/09/26 12:54:28;;;;;;;2.28;1.30;;;19.00;99.90;;;;;;5052864;28;20041;-81
2023/09/26 12:56:55;;;;;;;2.75;1.45;;;19.00;99.90;;;;;;5053331;28;20053;-81